Time;durP1;ratioP1;P1;durP2;ratioP2;P2;SDS_P1;SDS_P2;PMS_P1;PMS_P2;Temp;Humidity;BMP_temperature;BMP_pressure;BME280_temperature;BME280_humidity;BME280_pressure;Samples;Min_cycle;Max_cycle;Signal;HPM_P1;HPM_P2
2022/05/26 00:01:29;;;;;;;0.88;0.50;;;17.90;82.30;;;18.33;56.97;101208.06;5214082;28;20056;-81
2022/05/26 00:04:03;;;;;;;1.40;0.35;;;18.00;82.70;;;18.29;57.06;101216.78;5219128;28;20060;-84
2022/05/26 00:06:35;;;;;;;1.25;0.50;;;17.90;83.00;;;18.23;57.45;101211.44;5218764;28;20045;-82
2022/05/26 00:09:07;;;;;;;1.27;0.70;;;17.90;83.50;;;18.20;57.57;101207.03;5213879;28;20060;-83
2022/05/26 00:11:40;;;;;;;2.28;0.70;;;17.90;83.90;;;18.17;57.92;101207.88;5217372;28;20057;-83
2022/05/26 00:14:13;;;;;;;0.55;0.55;;;17.80;84.40;;;18.14;58.38;101207.88;5218205;28;20059;-85
2022/05/26 00:16:48;;;;;;;1.08;0.50;;;17.80;85.20;;;18.15;58.59;101216.66;5216565;28;20052;-84
2022/05/26 00:19:21;;;;;;;1.48;0.47;;;17.80;85.80;;;18.15;58.82;101212.25;5196513;28;20052;-82
2022/05/26 00:21:53;;;;;;;0.77;0.70;;;17.80;86.30;;;18.13;58.91;101207.84;5195860;28;20078;-83
2022/05/26 00:24:26;;;;;;;1.15;0.80;;;17.80;86.80;;;18.10;59.04;101211.31;5196607;28;20050;-82
2022/05/26 00:26:58;;;;;;;1.98;0.63;;;17.80;87.10;;;18.08;58.99;101207.78;5197549;28;20056;-82
2022/05/26 00:29:30;;;;;;;4.03;0.50;;;17.70;87.40;;;18.05;59.17;101206.88;5200847;28;20562;-83
2022/05/26 00:32:02;;;;;;;1.00;0.55;;;17.70;87.90;;;18.02;59.43;101210.38;5199624;28;20109;-83
2022/05/26 00:34:36;;;;;;;2.00;0.57;;;17.70;88.30;;;18.00;59.47;101212.13;5202262;28;20046;-84
2022/05/26 00:37:10;;;;;;;1.17;0.50;;;17.70;88.90;;;17.98;59.98;101216.47;5202268;28;20092;-84
2022/05/26 00:39:42;;;;;;;1.05;0.70;;;17.70;89.50;;;17.97;60.10;101216.44;5200651;28;20149;-83
2022/05/26 00:42:14;;;;;;;1.52;0.63;;;17.70;90.00;;;17.96;60.34;101212.94;5201829;28;20510;-84
2022/05/26 00:44:46;;;;;;;0.82;0.55;;;17.60;90.30;;;17.96;60.62;101218.22;5201379;28;20061;-83
2022/05/26 00:47:22;;;;;;;1.33;0.70;;;17.60;90.60;;;17.95;60.82;101211.16;5201944;28;20049;-83
2022/05/26 00:50:00;;;;;;;0.95;0.57;;;17.60;90.90;;;17.93;61.04;101212.91;5203109;28;20049;-83
2022/05/26 00:52:37;;;;;;;1.67;0.80;;;17.60;91.30;;;17.92;61.28;101205.84;5202920;28;20276;-82
2022/05/26 00:55:16;;;;;;;0.52;0.35;;;17.60;91.60;;;17.93;61.69;101210.28;5201813;28;20416;-84
2022/05/26 00:57:52;;;;;;;0.88;0.70;;;17.60;92.00;;;17.88;61.91;101209.34;5199495;28;20045;-82
2022/05/26 01:00:28;;;;;;;0.40;0.40;;;17.60;92.40;;;17.85;62.23;101219.81;5201656;28;20061;-84
2022/05/26 01:03:05;;;;;;;0.82;0.60;;;17.50;92.70;;;17.81;62.50;101208.38;5200403;28;20056;-84
2022/05/26 01:05:44;;;;;;;0.85;0.60;;;17.50;93.00;;;17.78;62.73;101212.72;5199281;28;20046;-82
2022/05/26 01:08:21;;;;;;;1.17;0.50;;;17.50;93.40;;;17.75;63.35;101212.69;5203260;28;20049;-82
2022/05/26 01:10:53;;;;;;;0.60;0.52;;;17.40;93.90;;;17.71;63.47;101211.75;5201471;28;20129;-81
2022/05/26 01:13:26;;;;;;;0.52;0.52;;;17.40;94.30;;;17.69;64.02;101204.66;5202831;28;20045;-82
2022/05/26 01:16:05;;;;;;;2.28;0.63;;;17.40;94.80;;;17.69;64.25;101212.59;5182047;28;20058;-86
2022/05/26 01:18:50;;;;;;;0.93;0.47;;;17.40;95.20;;;17.64;64.32;101209.88;5186915;28;20046;-85
2022/05/26 01:21:31;;;;;;;0.85;0.32;;;17.30;95.60;;;17.60;64.85;101206.34;5196124;28;20096;-85
2022/05/26 01:24:39;;;;;;;0.70;0.50;;;17.30;96.00;;;17.60;64.99;101216.88;5198148;28;20049;-87
2022/05/26 01:27:32;;;;;;;1.05;0.43;;;17.30;96.30;;;17.58;64.97;101210.69;5196420;28;20050;-86
2022/05/26 01:30:23;;;;;;;0.57;0.50;;;17.30;96.60;;;17.57;65.11;101214.19;5196682;28;20046;-85
2022/05/26 01:33:35;;;;;;;0.35;0.35;;;17.30;96.80;;;17.55;65.18;101210.66;5195929;28;20052;-87
2022/05/26 01:36:19;;;;;;;0.60;0.52;;;17.20;97.10;;;17.55;65.28;101213.28;5197110;28;20046;-86
2022/05/26 01:39:11;;;;;;;1.05;0.52;;;17.20;97.30;;;17.54;65.41;101208.91;5198010;28;20132;-86
2022/05/26 01:42:02;;;;;;;0.50;0.50;;;17.20;97.50;;;17.51;65.58;101213.22;5199733;28;20054;-86
2022/05/26 01:44:49;;;;;;;0.60;0.60;;;17.20;97.70;;;17.50;65.81;101217.63;5199981;28;20060;-86
2022/05/26 01:47:35;;;;;;;0.73;0.40;;;17.20;98.20;;;17.47;65.80;101209.66;5199693;28;20072;-86
2022/05/26 01:50:22;;;;;;;0.82;0.50;;;17.10;98.00;;;17.44;65.84;101212.25;5200864;28;20138;-86
2022/05/26 01:53:09;;;;;;;0.50;0.50;;;17.10;98.10;;;17.43;66.00;101214.88;5214907;28;20118;-87
2022/05/26 01:55:48;;;;;;;0.47;0.47;;;17.10;98.20;;;17.42;66.01;101216.63;5221355;28;20060;-87
2022/05/26 01:58:33;;;;;;;0.50;0.50;;;17.10;98.40;;;17.40;66.35;101210.44;5216735;28;20049;-87
2022/05/26 02:01:12;;;;;;;1.00;0.52;;;17.10;98.70;;;17.39;66.33;101215.69;5217046;28;20112;-87
2022/05/26 02:03:48;;;;;;;0.95;0.47;;;17.10;98.70;;;17.37;66.57;101220.94;5217265;28;20418;-88
2022/05/26 02:06:26;;;;;;;1.23;0.43;;;17.10;99.00;;;17.35;66.67;101218.31;5216939;28;20050;-88
2022/05/26 02:09:06;;;;;;;0.82;0.52;;;17.10;99.00;;;17.33;66.75;101219.13;5219224;28;20068;-86
2022/05/26 02:11:55;;;;;;;0.43;0.43;;;17.00;99.10;;;17.30;66.83;101219.09;5219339;28;20052;-87
2022/05/26 02:14:34;;;;;;;0.95;0.50;;;17.00;99.20;;;17.29;66.78;101222.59;5217038;28;20049;-87
2022/05/26 02:17:12;;;;;;;0.50;0.50;;;16.90;99.20;;;17.25;67.10;101228.69;5222837;28;20065;-86
2022/05/26 02:19:48;;;;;;;0.68;0.60;;;17.00;99.70;;;17.24;66.99;101224.28;5225631;28;20041;-86
2022/05/26 02:22:26;;;;;;;1.25;0.60;;;16.90;99.40;;;17.23;67.02;101231.28;5219262;28;20041;-87
2022/05/26 02:25:03;;;;;;;0.80;0.75;;;16.90;99.50;;;17.23;67.18;101227.78;5217554;28;20049;-86
2022/05/26 02:27:37;;;;;;;0.82;0.52;;;16.90;99.60;;;17.21;67.27;101221.59;5218386;28;20068;-87
2022/05/26 02:30:12;;;;;;;1.02;0.77;;;16.90;99.70;;;17.21;67.31;101225.09;5217975;28;20053;-87
2022/05/26 02:32:48;;;;;;;0.63;0.63;;;16.90;99.80;;;17.21;67.67;101225.09;5219572;28;20084;-87
2022/05/26 02:35:29;;;;;;;0.60;0.52;;;16.90;99.90;;;17.21;67.62;101226.84;5217941;28;20054;-87
2022/05/26 02:38:08;;;;;;;0.68;0.60;;;16.90;99.90;;;17.22;67.82;101231.28;5218580;28;20045;-87
2022/05/26 02:40:40;;;;;;;0.50;0.50;;;16.90;99.90;;;17.21;67.91;101224.22;5219276;28;20081;-86
2022/05/26 02:43:16;;;;;;;0.98;0.52;;;16.90;99.90;;;17.20;67.84;101222.44;5219957;28;20049;-87
2022/05/26 02:46:04;;;;;;;1.20;0.70;;;16.90;99.90;;;17.21;67.83;101233.00;5202731;28;20492;-87
2022/05/26 02:49:05;;;;;;;1.33;0.63;;;16.90;99.90;;;17.18;68.08;101227.69;5197274;28;20108;-87
2022/05/26 02:51:49;;;;;;;1.70;0.52;;;16.90;99.90;;;17.18;68.23;101234.72;5197136;28;20042;-86
2022/05/26 02:54:42;;;;;;;1.42;0.50;;;16.90;99.90;;;17.19;67.99;101236.50;5200183;28;20056;-85
2022/05/26 02:57:22;;;;;;;0.60;0.57;;;16.80;99.90;;;17.16;67.75;101239.97;5198734;28;20109;-84
2022/05/26 03:00:04;;;;;;;0.57;0.52;;;16.90;99.90;;;17.14;68.05;101233.78;5198715;28;20050;-86
2022/05/26 03:02:44;;;;;;;0.57;0.57;;;16.80;99.90;;;17.16;68.15;101239.09;5198882;28;20046;-86
2022/05/26 03:05:20;;;;;;;1.25;0.50;;;16.90;99.90;;;17.16;68.49;101239.09;5199239;28;20053;-86
2022/05/26 03:07:56;;;;;;;1.30;0.63;;;16.80;99.90;;;17.17;68.49;101246.13;5199412;28;20128;-86
2022/05/26 03:10:32;;;;;;;1.45;0.52;;;16.80;99.90;;;17.18;68.66;101240.00;5199272;28;20059;-85
2022/05/26 03:13:05;;;;;;;2.45;0.60;;;16.90;99.90;;;17.19;68.44;101247.03;5200254;28;20054;-85
2022/05/26 03:15:38;;;;;;;0.70;0.60;;;16.90;99.90;;;17.16;68.58;101254.91;5200043;28;20060;-85
2022/05/26 03:18:10;;;;;;;0.43;0.43;;;16.80;99.90;;;17.14;68.90;101248.69;5209185;28;20053;-83
2022/05/26 03:20:42;;;;;;;0.50;0.47;;;16.80;99.90;;;17.15;69.02;101255.72;5218769;28;20128;-84
2022/05/26 03:23:14;;;;;;;0.35;0.35;;;16.80;99.90;;;17.15;68.94;101258.38;5219822;28;20439;-85
2022/05/26 03:25:48;;;;;;;0.75;0.38;;;16.80;99.90;;;17.13;69.05;101252.19;5220550;28;20046;-85
2022/05/26 03:28:20;;;;;;;0.70;0.52;;;16.80;99.90;;;17.11;69.26;101253.94;5220322;28;20056;-86
2022/05/26 03:30:53;;;;;;;1.48;0.52;;;16.80;99.90;;;17.12;69.32;101255.69;5221539;28;20069;-85
2022/05/26 03:33:25;;;;;;;0.52;0.52;;;16.80;99.90;;;17.08;69.77;101260.94;5221884;28;20057;-86
2022/05/26 03:41:38;;;;;;;0.77;0.45;;;16.70;99.90;;;17.01;70.60;101263.41;5220041;28;20454;-85
2022/05/26 03:44:10;;;;;;;1.05;0.70;;;16.70;99.90;;;17.00;71.11;101267.81;5220050;28;20057;-85
2022/05/26 03:46:42;;;;;;;1.40;0.77;;;16.70;99.90;;;17.00;71.45;101267.81;5220434;28;20117;-84
2022/05/26 03:49:15;;;;;;;0.73;0.52;;;16.70;99.90;;;16.99;71.70;101271.31;5219901;28;20045;-85
2022/05/26 03:51:47;;;;;;;1.08;0.80;;;16.70;99.90;;;17.01;71.45;101279.22;5220068;28;20056;-84
2022/05/26 03:54:19;;;;;;;1.67;0.90;;;16.70;99.90;;;17.02;71.61;101281.03;5219838;28;20113;-87
2022/05/26 03:56:52;;;;;;;2.08;0.82;;;16.70;99.90;;;17.04;71.77;101281.94;5220546;28;20053;-85
2022/05/26 03:59:24;;;;;;;0.95;0.70;;;16.70;99.90;;;17.03;71.72;101280.16;5220837;28;20089;-86
2022/05/26 04:01:56;;;;;;;2.35;0.88;;;16.70;99.90;;;17.02;71.98;101270.50;5224238;28;20038;-84
2022/05/26 04:04:28;;;;;;;2.67;0.90;;;16.70;99.90;;;17.04;71.86;101281.94;5225976;28;20120;-84
2022/05/26 04:07:00;;;;;;;1.55;0.90;;;16.70;99.90;;;17.05;71.88;101283.69;5225832;28;20108;-86
2022/05/26 04:09:32;;;;;;;1.65;1.02;;;16.80;99.90;;;17.09;71.56;101294.31;5226361;28;20049;-86
2022/05/26 04:12:07;;;;;;;2.35;1.00;;;16.80;99.90;;;17.06;71.44;101282.81;5227557;28;20076;-85
2022/05/26 04:14:40;;;;;;;1.92;0.70;;;16.80;99.90;;;16.99;71.83;101280.97;5234009;28;20045;-86
2022/05/26 04:17:12;;;;;;;3.38;0.93;;;16.70;99.90;;;16.98;72.22;101290.59;5235357;28;20033;-86
2022/05/26 04:22:23;;;;;;;3.17;0.90;;;16.70;99.90;;;17.02;72.55;101296.81;5193071;28;19945;-86
2022/05/26 04:24:58;;;;;;;1.60;0.80;;;16.70;99.90;;;17.05;72.58;101292.47;5197245;28;20133;-86
2022/05/26 04:27:34;;;;;;;0.68;0.68;;;16.70;99.90;;;17.09;72.60;101298.69;5197063;28;20119;-87
2022/05/26 04:30:10;;;;;;;2.05;1.00;;;16.80;99.90;;;17.09;72.58;101302.22;5197098;28;20070;-84
2022/05/26 04:32:42;;;;;;;1.15;0.85;;;16.80;99.90;;;17.10;72.48;101300.47;5196191;28;20052;-85
2022/05/26 04:35:15;;;;;;;1.15;0.70;;;16.80;99.90;;;17.11;72.29;101299.59;5197298;28;20049;-85
2022/05/26 04:37:48;;;;;;;1.35;0.95;;;16.80;99.90;;;17.13;72.21;101304.88;5196155;28;20496;-85
2022/05/26 04:40:20;;;;;;;0.80;0.80;;;16.80;99.90;;;17.12;72.52;101305.75;5196440;28;20053;-85
2022/05/26 04:42:54;;;;;;;1.02;0.73;;;16.80;99.90;;;17.12;72.62;101308.38;5196449;28;20053;-86
2022/05/26 04:45:27;;;;;;;2.13;0.90;;;16.80;99.90;;;17.12;72.59;101308.38;5195845;28;20042;-85
2022/05/26 04:48:00;;;;;;;2.25;0.93;;;16.80;99.90;;;17.14;72.85;101317.19;5195825;28;20070;-86
2022/05/26 04:50:32;;;;;;;1.70;0.93;;;16.80;99.90;;;17.17;72.82;101315.50;5196581;28;20080;-86
2022/05/26 04:53:04;;;;;;;2.60;0.93;;;16.80;99.90;;;17.19;73.02;101326.06;5198997;28;20054;-86
2022/05/26 04:55:36;;;;;;;1.20;0.98;;;16.90;99.90;;;17.23;73.10;101317.34;5199363;28;20056;-86
2022/05/26 04:58:10;;;;;;;3.38;1.00;;;16.90;99.90;;;17.27;72.94;101319.16;5198837;28;20534;-87
2022/05/26 05:00:42;;;;;;;0.93;0.88;;;16.90;99.90;;;17.30;73.03;101324.50;5198338;28;20053;-87
2022/05/26 05:03:14;;;;;;;2.85;1.13;;;17.00;99.90;;;17.32;73.05;101326.28;5198216;28;20060;-85
2022/05/26 05:05:47;;;;;;;3.50;1.13;;;17.00;99.90;;;17.37;73.37;101323.72;5198032;28;20046;-85
2022/05/26 05:08:19;;;;;;;1.60;0.77;;;17.00;99.90;;;17.42;73.39;101324.69;5197155;28;20064;-86
2022/05/26 05:10:51;;;;;;;1.20;0.93;;;17.10;99.90;;;17.47;73.11;101327.38;5198086;28;20057;-86
2022/05/26 05:13:25;;;;;;;1.60;0.90;;;17.10;99.90;;;17.51;73.40;101324.81;5196953;28;20144;-87
2022/05/26 05:16:04;;;;;;;2.30;1.23;;;17.10;99.90;;;17.56;73.29;101332.78;5196752;28;20496;-86
2022/05/26 05:18:36;;;;;;;1.38;0.82;;;17.20;99.90;;;17.63;73.21;101329.38;5196997;28;20048;-86
2022/05/26 05:21:12;;;;;;;1.83;1.00;;;17.30;99.90;;;17.72;73.31;101331.28;5195565;28;20056;-87
2022/05/26 05:23:48;;;;;;;4.40;1.23;;;17.30;99.90;;;17.82;73.08;101336.72;5196020;28;20045;-88
2022/05/26 05:26:23;;;;;;;2.70;1.10;;;17.30;99.90;;;17.89;72.82;101348.25;5196363;28;20467;-87
2022/05/26 05:29:00;;;;;;;2.58;1.30;;;17.50;99.90;;;17.92;72.27;101348.25;5196095;28;20054;-86
2022/05/26 05:31:38;;;;;;;1.23;1.13;;;17.50;99.90;;;17.95;71.95;101353.59;5195838;28;20507;-87
2022/05/26 05:34:15;;;;;;;3.03;1.02;;;17.50;99.90;;;17.98;71.93;101353.63;5196550;28;20060;-86
2022/05/26 05:36:48;;;;;;;5.90;1.55;;;17.60;99.90;;;18.02;71.78;101355.44;5195974;28;20050;-87
2022/05/26 05:39:20;;;;;;;3.25;1.27;;;17.60;99.90;;;18.04;71.55;101352.81;5195999;28;20056;-86
2022/05/26 05:41:55;;;;;;;3.78;1.40;;;17.60;99.90;;;18.03;71.38;101354.56;5197207;28;20417;-86
2022/05/26 05:44:29;;;;;;;5.15;1.70;;;17.60;99.90;;;17.98;71.50;101356.25;5199149;28;20069;-86
2022/05/26 05:47:01;;;;;;;3.60;1.50;;;17.60;99.90;;;17.98;71.32;101355.38;5197645;28;20054;-86
2022/05/26 05:49:35;;;;;;;2.78;1.70;;;17.60;99.90;;;18.03;71.39;101364.25;5194580;28;20054;-88
2022/05/26 05:52:11;;;;;;;3.17;1.55;;;17.60;99.90;;;18.07;71.47;101368.72;5194249;28;20053;-86
2022/05/26 05:54:43;;;;;;;4.13;1.65;;;17.70;99.90;;;18.10;71.33;101364.34;5194645;28;20049;-87
2022/05/26 05:57:15;;;;;;;2.95;1.50;;;17.70;99.90;;;18.17;71.37;101371.47;5194936;28;20141;-86
2022/05/26 05:59:49;;;;;;;4.38;1.75;;;17.70;99.90;;;18.25;70.93;101368.03;5192975;28;20419;-84
2022/05/26 06:02:21;;;;;;;3.45;1.77;;;17.80;99.90;;;18.31;71.04;101376.03;5192840;28;20060;-84
2022/05/26 06:04:53;;;;;;;3.70;1.60;;;17.80;99.90;;;18.44;71.24;101380.59;5192263;28;20060;-83
2022/05/26 06:07:25;;;;;;;3.63;1.35;;;17.90;99.90;;;18.58;70.99;101389.59;5191347;28;20052;-84
2022/05/26 06:09:57;;;;;;;3.67;1.60;;;18.00;99.90;;;18.71;70.03;101387.97;5191186;28;20050;-84
2022/05/26 06:12:29;;;;;;;4.75;1.83;;;18.10;99.90;;;18.92;70.01;101389.97;5191701;28;20050;-84
2022/05/26 06:15:03;;;;;;;4.97;1.80;;;18.30;99.90;;;19.17;68.24;101391.97;5191090;28;20046;-85
2022/05/26 06:17:35;;;;;;;4.30;1.70;;;18.50;99.90;;;19.61;67.87;101393.22;5191416;28;20057;-84
2022/05/26 06:20:10;;;;;;;2.80;1.52;;;18.80;99.90;;;20.29;64.64;101401.59;5189985;28;20109;-84
2022/05/26 06:22:44;;;;;;;5.55;1.80;;;19.40;99.90;;;20.99;62.16;101405.34;5191002;28;20050;-85
2022/05/26 06:25:19;;;;;;;2.53;1.38;;;20.00;99.70;;;21.43;58.50;101397.47;5190223;28;20053;-83
2022/05/26 06:30:42;;;;;;;4.70;1.58;;;20.80;96.90;;;22.06;56.77;101406.22;5191167;28;20072;-85
2022/05/26 06:38:53;;;;;;;4.40;1.80;;;20.90;94.70;;;21.20;57.62;101413.34;5190807;28;20064;-89
2022/05/26 06:44:15;;;;;;;3.22;1.90;;;20.40;95.30;;;20.74;58.78;101415.91;5192290;28;20107;-90
2022/05/26 06:46:51;;;;;;;5.55;2.10;;;20.20;95.60;;;20.64;59.65;101419.41;5192430;28;20499;-90
2022/05/26 06:49:23;;;;;;;4.55;1.83;;;20.10;96.10;;;20.56;60.04;101426.44;5192205;28;20054;-87
2022/05/26 06:51:56;;;;;;;4.93;2.13;;;20.00;96.40;;;20.58;59.78;101429.97;5192561;28;20133;-88
2022/05/26 06:54:32;;;;;;;6.32;2.00;;;20.00;96.30;;;20.69;59.45;101433.56;5181873;28;20050;-87
2022/05/26 06:57:06;;;;;;;5.72;2.25;;;20.00;96.40;;;20.57;59.39;101430.84;5172292;28;20074;-87
2022/05/26 06:59:39;;;;;;;4.82;1.92;;;19.90;96.30;;;20.44;60.20;101431.66;5191552;28;20070;-89
2022/05/26 07:02:14;;;;;;;4.32;1.77;;;19.80;96.60;;;20.31;60.53;101436.00;5187984;28;20042;-88
2022/05/26 07:04:46;;;;;;;3.45;2.00;;;19.80;96.70;;;20.11;61.13;101441.19;5191676;28;20492;-89
2022/05/26 07:07:18;;;;;;;4.88;1.75;;;19.60;96.90;;;20.02;61.74;101442.03;5192296;28;20076;-88
2022/05/26 07:09:54;;;;;;;4.10;1.73;;;19.50;97.20;;;20.10;62.13;101439.41;5190738;28;20411;-88
2022/05/26 07:12:26;;;;;;;4.28;1.75;;;19.50;97.50;;;20.25;61.89;101447.44;5186714;28;20047;-80
2022/05/26 07:14:59;;;;;;;6.47;2.03;;;19.60;97.60;;;20.47;61.54;101442.28;5179840;28;20049;-81
2022/05/26 07:17:32;;;;;;;9.55;2.45;;;19.80;97.60;;;20.60;60.37;101449.38;5182617;28;20050;-80
2022/05/26 07:20:07;;;;;;;5.43;1.63;;;19.90;97.10;;;20.57;59.67;101460.00;5172800;28;20423;-81
2022/05/26 07:22:39;;;;;;;6.90;2.40;;;19.90;96.40;;;20.45;59.73;101454.63;5167284;28;20397;-82
2022/05/26 07:25:11;;;;;;;7.93;2.72;;;19.90;96.30;;;20.42;60.35;101454.59;5167792;28;20054;-80
2022/05/26 07:27:43;;;;;;;8.95;2.50;;;19.90;96.50;;;20.42;60.37;101462.53;5167298;28;20049;-82
2022/05/26 07:30:15;;;;;;;4.68;2.40;;;19.80;96.50;;;20.44;60.68;101452.84;5177594;28;20049;-80
2022/05/26 07:32:49;;;;;;;5.22;2.00;;;19.90;96.70;;;20.51;61.10;101460.84;5187647;28;20061;-78
2022/05/26 07:35:21;;;;;;;6.43;2.17;;;19.90;96.90;;;20.57;60.33;101471.47;5188085;28;20133;-80
2022/05/26 07:43:34;;;;;;;8.00;2.10;;;20.00;96.40;;;20.60;60.10;101465.28;5191027;28;20121;-79
2022/05/26 07:46:07;;;;;;;5.15;2.03;;;20.00;96.20;;;20.89;59.66;101472.47;5190819;28;20152;-80
2022/05/26 07:48:40;;;;;;;5.55;2.13;;;20.20;96.20;;;21.52;59.28;101481.47;5190910;28;20060;-80
2022/05/26 07:51:12;;;;;;;6.03;2.20;;;20.50;96.80;;;21.92;56.54;101472.63;5191182;28;20430;-80
2022/05/26 07:53:44;;;;;;;4.43;2.03;;;20.80;95.50;;;22.16;54.50;101481.44;5191705;28;20069;-82
2022/05/26 07:56:16;;;;;;;4.82;2.28;;;21.10;94.00;;;23.02;54.20;101477.63;5182679;28;20049;-81
2022/05/26 07:58:48;;;;;;;6.88;2.10;;;21.60;94.50;;;24.33;50.08;101480.09;5190566;28;20058;-80
2022/05/26 08:01:20;;;;;;;5.13;1.60;;;22.40;92.40;;;25.54;46.87;101479.38;5188985;28;20054;-78
2022/05/26 08:03:54;;;;;;;6.10;1.95;;;23.30;90.50;;;25.92;44.27;101483.22;5189464;28;20050;-81
2022/05/26 08:06:26;;;;;;;5.50;1.90;;;23.90;85.20;;;25.52;44.08;101493.66;5189649;28;20405;-78
2022/05/26 08:08:58;;;;;;;4.00;1.60;;;23.80;81.70;;;25.32;44.70;101493.97;5189678;28;20061;-80
2022/05/26 08:11:30;;;;;;;7.43;2.10;;;23.70;82.10;;;25.14;44.80;101496.00;5189679;28;20508;-80
2022/05/26 08:14:02;;;;;;;6.10;2.17;;;23.50;81.20;;;25.17;45.20;101500.41;5183827;28;20046;-80
2022/05/26 08:16:35;;;;;;;5.00;1.83;;;23.50;81.70;;;25.19;44.64;101500.41;5190763;28;20496;-79
2022/05/26 08:19:09;;;;;;;5.22;2.30;;;23.50;80.80;;;24.64;45.68;101496.63;5191059;28;20049;-78
2022/05/26 08:21:41;;;;;;;3.40;1.40;;;23.20;81.20;;;24.78;45.83;101500.03;5191863;28;20052;-77
2022/05/26 08:24:13;;;;;;;4.72;1.80;;;23.10;81.40;;;25.15;45.54;101503.09;5190496;28;20056;-81
2022/05/26 08:26:44;;;;;;;5.18;1.88;;;23.20;82.40;;;25.01;45.86;101502.38;5189650;28;20058;-79
2022/05/26 08:29:17;;;;;;;2.03;1.30;;;23.20;82.10;;;24.51;47.14;101506.53;5190153;28;20424;-78
2022/05/26 08:31:49;;;;;;;4.03;1.33;;;23.00;82.70;;;24.00;48.08;101521.28;5181863;28;20050;-81
2022/05/26 08:34:22;;;;;;;5.50;1.95;;;22.70;83.20;;;24.63;47.58;101505.53;5190780;28;20050;-80
2022/05/26 08:36:54;;;;;;;3.28;1.42;;;22.80;84.90;;;25.91;45.30;101514.38;5190593;28;20069;-81
2022/05/26 08:39:26;;;;;;;5.00;1.65;;;23.40;84.60;;;26.60;43.63;101515.78;5190301;28;20049;-80
2022/05/26 08:41:58;;;;;;;2.67;1.52;;;23.90;82.30;;;27.12;42.52;101520.06;5190375;28;20056;-81
2022/05/26 08:44:34;;;;;;;3.65;1.50;;;24.40;80.50;;;26.87;42.09;101529.53;5190973;28;20096;-81
2022/05/26 08:47:11;;;;;;;3.78;1.60;;;24.50;78.30;;;26.35;42.39;101534.09;5189551;28;20108;-81
2022/05/26 08:49:51;;;;;;;5.22;1.73;;;24.40;77.10;;;26.16;42.69;101524.66;5188309;28;20053;-79
2022/05/26 08:52:27;;;;;;;;;;;24.30;76.80;;;27.50;41.02;101543.28;5192517;28;20547;-80
2022/05/26 08:55:06;;;;;;;4.13;1.40;;;24.80;76.80;;;29.12;37.31;101548.84;5190513;28;19921;-80
2022/05/26 08:57:51;;;;;;;4.38;1.80;;;25.70;73.00;;;30.21;34.17;101533.66;5189455;28;20061;-81
2022/05/26 09:00:26;;;;;;;3.92;1.50;;;26.60;68.50;;;30.50;34.73;101554.13;5190271;28;20054;-81
2022/05/26 09:03:00;;;;;;;3.72;1.52;;;27.00;67.80;;;31.38;32.89;101551.75;5189927;28;20046;-79
2022/05/26 09:05:39;;;;;;;3.78;1.27;;;27.70;65.90;;;32.37;32.05;101554.81;5191291;28;20053;-79
2022/05/26 09:14:00;;;;;;;4.03;1.40;;;27.80;61.90;;;30.33;33.97;101566.44;5191359;28;20053;-79
2022/05/26 09:16:43;;;;;;;6.35;1.75;;;27.60;63.00;;;30.59;34.04;101570.88;5185535;28;20054;-81
2022/05/26 09:19:18;;;;;;;3.30;1.60;;;27.60;63.60;;;30.88;33.58;101562.63;5196515;28;20060;-79
2022/05/26 09:21:53;;;;;;;5.40;1.38;;;27.90;62.90;;;30.59;33.53;101565.50;5194481;28;20045;-79
2022/05/26 09:24:34;;;;;;;4.28;1.42;;;27.90;62.40;;;30.26;34.25;101573.84;5195544;28;20249;-81
2022/05/26 09:27:24;;;;;;;4.45;1.80;;;27.80;62.20;;;29.37;34.29;101574.00;5191314;28;20100;-80
2022/05/26 09:30:19;;;;;;;3.65;1.30;;;27.50;61.20;;;27.81;36.72;101575.59;5189422;28;20136;-80
2022/05/26 09:32:52;;;;;;;4.57;1.65;;;26.50;62.50;;;27.48;38.68;101577.25;5190210;28;20050;-80
2022/05/26 09:35:27;;;;;;;4.45;1.80;;;26.10;64.90;;;27.20;38.67;101574.31;5190210;28;20521;-79
2022/05/26 09:38:05;;;;;;;2.05;1.35;;;26.00;64.70;;;26.86;39.32;101578.56;5187830;28;20420;-78
2022/05/26 09:40:40;;;;;;;3.13;1.30;;;25.70;65.10;;;26.31;40.51;101582.25;5191539;28;20074;-79
2022/05/26 09:43:23;;;;;;;5.00;1.58;;;25.30;65.70;;;25.50;41.43;101584.44;5170809;28;20137;-78
2022/05/26 09:46:02;;;;;;;3.38;1.70;;;24.70;66.40;;;24.81;42.26;101579.06;5188895;28;20508;-78
2022/05/26 09:48:37;;;;;;;4.72;1.60;;;24.20;67.10;;;24.74;44.41;101574.72;5189872;28;20512;-80
2022/05/26 09:51:14;;;;;;;4.22;1.38;;;23.90;69.70;;;24.79;44.40;101572.91;5190468;28;20053;-80
2022/05/26 09:53:48;;;;;;;4.47;1.77;;;23.90;70.50;;;24.89;44.61;101577.19;5183193;28;20046;-78
2022/05/26 09:56:33;;;;;;;2.70;1.48;;;23.90;70.70;;;24.80;44.58;101574.66;5188172;28;20069;-79
2022/05/26 09:59:25;;;;;;;4.38;2.50;;;23.90;70.50;;;24.67;44.44;101570.38;5173839;28;20419;-79
2022/05/26 10:02:03;;;;;;;4.00;1.65;;;23.80;70.70;;;24.68;44.79;101566.78;5187829;28;20519;-80
2022/05/26 10:04:56;;;;;;;5.15;1.90;;;23.80;71.00;;;24.60;45.23;101565.09;5178658;28;20046;-80
2022/05/26 10:07:51;;;;;;;5.95;1.90;;;23.70;71.60;;;24.42;45.35;101570.63;5167619;28;20519;-78
2022/05/26 10:10:30;;;;;;;4.20;1.25;;;23.60;71.50;;;24.59;44.64;101567.78;5185724;28;20145;-78
2022/05/26 10:13:22;;;;;;;3.55;1.35;;;23.60;71.20;;;24.79;44.18;101570.22;5186615;28;20061;-79
2022/05/26 10:16:05;;;;;;;2.25;1.23;;;23.80;70.50;;;24.84;44.43;101571.03;5186833;28;20057;-79
2022/05/26 10:19:21;;;;;;;4.13;1.52;;;23.90;71.00;;;24.58;44.02;101576.66;5183787;28;20054;-79
2022/05/26 10:22:08;;;;;;;3.75;1.48;;;23.80;70.30;;;24.14;44.74;101577.09;5166892;28;20064;-79
2022/05/26 10:24:59;;;;;;;2.38;1.25;;;23.50;70.40;;;24.02;46.12;101578.94;5254370;23;20050;-56
2022/05/26 10:27:50;;;;;;;2.47;1.30;;;23.30;71.90;;;24.29;46.89;101580.47;5193036;28;20054;-55
2022/05/26 10:30:39;;;;;;;3.95;1.13;;;23.40;73.40;;;24.46;46.08;101569.69;5171862;28;20107;-54
2022/05/26 10:33:33;;;;;;;3.28;1.23;;;23.60;72.90;;;24.66;46.35;101569.47;5201800;28;20089;-55
2022/05/26 10:36:17;;;;;;;2.47;1.02;;;23.70;73.20;;;24.96;45.50;101578.00;5186207;28;20062;-54
2022/05/26 10:39:17;;;;;;;2.78;1.55;;;23.90;73.00;;;25.22;43.88;101575.03;5186019;28;20046;-55
2022/05/26 10:41:55;;;;;;;3.50;1.60;;;24.20;71.10;;;24.91;43.38;101575.41;5184630;28;20086;-56
2022/05/26 10:44:35;;;;;;;3.20;1.40;;;24.00;69.60;;;24.70;44.12;101568.53;5186035;28;20046;-54
2022/05/26 10:47:14;;;;;;;3.47;1.27;;;23.90;70.50;;;24.42;44.48;101575.94;5186518;28;20054;-54
2022/05/26 10:49:53;;;;;;;3.90;1.50;;;23.70;70.70;;;24.28;45.26;101581.38;5169561;28;20050;-54
2022/05/26 10:52:30;;;;;;;2.35;0.95;;;23.50;71.30;;;24.14;45.23;101580.63;5191796;28;20049;-55
2022/05/26 10:55:09;;;;;;;3.38;1.55;;;23.40;71.50;;;24.07;45.25;101579.78;5188501;28;20052;-54
2022/05/26 10:57:47;;;;;;;4.78;2.00;;;23.40;71.50;;;24.28;46.05;101569.84;5185761;28;20058;-53
2022/05/26 11:00:27;;;;;;;4.80;2.22;;;23.50;72.60;;;24.61;45.92;101572.19;5185803;28;20068;-57
2022/05/26 11:03:10;;;;;;;9.73;3.90;;;23.70;73.10;;;24.89;45.15;101577.19;5186065;28;20132;-55
2022/05/26 11:05:48;;;;;;;13.57;4.95;;;23.90;72.30;;;24.73;44.07;101578.28;5185644;28;20053;-57
2022/05/26 11:08:34;;;;;;;14.05;5.70;;;23.90;70.80;;;24.37;45.04;101577.75;5185334;28;20046;-54
2022/05/26 11:11:15;;;;;;;13.68;5.78;;;23.70;70.80;;;23.98;45.38;101570.97;5185512;28;20060;-54
2022/05/26 11:13:55;;;;;;;15.43;5.85;;;23.40;71.10;;;23.56;46.03;101579.25;5185706;28;20053;-60
2022/05/26 11:19:38;;;;;;;8.65;3.03;;;22.90;72.60;;;23.48;48.05;101580.19;5191900;28;20064;-56
2022/05/26 11:22:12;;;;;;;5.68;1.88;;;22.90;74.10;;;23.66;46.28;101579.22;5197529;28;20050;-54
2022/05/26 11:24:49;;;;;;;3.10;1.30;;;22.90;72.90;;;23.58;45.37;101573.91;5205994;28;20055;-54
2022/05/26 11:27:27;;;;;;;4.15;1.58;;;22.90;71.30;;;23.49;45.86;101574.84;5205955;28;20046;-55